Time;durP1;ratioP1;P1;durP2;ratioP2;P2;SDS_P1;SDS_P2;PMS_P1;PMS_P2;Temp;Humidity;BMP_temperature;BMP_pressure;BME280_temperature;BME280_humidity;BME280_pressure;Samples;Min_cycle;Max_cycle;Signal;HPM_P1;HPM_P2
2021/07/06 00:01:39;;;;;;;2.30;2.10;;;17.90;99.90;;;;;;5062362;28;20052;-43
2021/07/06 00:04:04;;;;;;;2.83;2.42;;;17.90;99.90;;;;;;5059471;28;20502;-43
2021/07/06 00:06:29;;;;;;;2.45;2.25;;;17.90;99.90;;;;;;5060480;28;20024;-44
2021/07/06 00:08:55;;;;;;;3.88;2.08;;;18.00;99.90;;;;;;5061363;28;20109;-44
2021/07/06 00:11:21;;;;;;;2.60;2.40;;;17.90;99.90;;;;;;5060038;28;20033;-44
2021/07/06 00:13:46;;;;;;;4.60;2.10;;;18.00;99.90;;;;;;5061570;28;20508;-44
2021/07/06 00:16:13;;;;;;;3.30;2.17;;;18.00;99.90;;;;;;5057928;28;20025;-45
2021/07/06 00:18:39;;;;;;;2.63;2.20;;;18.00;99.90;;;;;;5057587;28;20013;-43
2021/07/06 00:21:04;;;;;;;4.72;2.40;;;18.00;99.90;;;;;;5065040;28;20070;-44
2021/07/06 00:23:30;;;;;;;3.55;2.20;;;18.10;99.90;;;;;;5057785;28;20052;-44
2021/07/06 00:25:55;;;;;;;3.28;2.53;;;18.10;99.90;;;;;;5057802;28;20032;-44
2021/07/06 00:28:23;;;;;;;2.72;2.47;;;18.10;99.90;;;;;;5057628;28;20120;-44
2021/07/06 00:30:49;;;;;;;3.92;2.10;;;18.10;99.90;;;;;;5055971;28;20017;-44
2021/07/06 00:33:15;;;;;;;4.13;2.58;;;18.10;99.90;;;;;;5048898;28;20029;-44
2021/07/06 00:35:42;;;;;;;2.85;2.53;;;18.20;99.90;;;;;;5061658;28;20501;-44
2021/07/06 00:38:08;;;;;;;6.13;2.63;;;18.20;99.90;;;;;;5065642;28;20021;-43
2021/07/06 00:40:34;;;;;;;2.92;2.45;;;18.20;99.90;;;;;;5056691;28;20498;-44
2021/07/06 00:42:59;;;;;;;4.22;2.60;;;18.20;99.90;;;;;;5057526;28;20025;-44
2021/07/06 00:45:26;;;;;;;2.40;2.20;;;18.20;99.90;;;;;;5063305;28;20569;-44
2021/07/06 00:47:52;;;;;;;4.25;2.60;;;18.20;99.90;;;;;;5052542;28;20025;-43
2021/07/06 00:50:21;;;;;;;5.22;2.63;;;18.30;99.90;;;;;;5062346;28;20104;-43
2021/07/06 00:52:48;;;;;;;9.80;3.17;;;18.20;99.90;;;;;;5056635;28;20510;-44
2021/07/06 00:55:14;;;;;;;6.32;2.72;;;18.20;99.90;;;;;;5065101;28;20181;-44
2021/07/06 00:57:40;;;;;;;2.80;2.60;;;18.20;99.90;;;;;;5056697;28;20025;-44
2021/07/06 01:00:08;;;;;;;3.25;2.90;;;18.20;99.90;;;;;;5057656;28;20028;-43
2021/07/06 01:02:34;;;;;;;2.90;2.50;;;18.20;99.90;;;;;;5056104;28;20017;-44
2021/07/06 01:04:59;;;;;;;4.38;2.63;;;18.20;99.90;;;;;;5059162;28;20502;-44
2021/07/06 01:07:25;;;;;;;2.83;2.55;;;18.20;99.90;;;;;;5063366;28;20574;-43
2021/07/06 01:09:51;;;;;;;2.47;2.28;;;18.20;99.90;;;;;;5054617;28;20029;-44
2021/07/06 01:12:17;;;;;;;2.92;2.35;;;18.20;99.90;;;;;;5064598;28;20490;-45
2021/07/06 01:14:44;;;;;;;5.60;2.38;;;18.30;99.90;;;;;;5056541;28;20033;-44
2021/07/06 01:17:10;;;;;;;4.40;2.50;;;18.30;99.90;;;;;;5057358;28;20021;-44
2021/07/06 01:19:37;;;;;;;3.53;2.35;;;18.30;99.90;;;;;;5058670;28;20036;-44
2021/07/06 01:22:06;;;;;;;5.22;2.65;;;18.30;99.90;;;;;;5059766;28;20055;-44
2021/07/06 01:24:36;;;;;;;3.13;2.50;;;18.30;99.90;;;;;;5060257;28;20017;-41
2021/07/06 01:27:02;;;;;;;3.10;2.78;;;18.30;99.90;;;;;;5056728;28;20063;-41
2021/07/06 01:29:27;;;;;;;2.97;2.28;;;18.40;99.90;;;;;;5059214;28;20036;-41
2021/07/06 01:31:53;;;;;;;3.03;2.25;;;18.40;99.90;;;;;;5059387;28;20462;-43
2021/07/06 01:34:18;;;;;;;3.10;2.60;;;18.40;99.90;;;;;;5048107;28;20532;-42
2021/07/06 01:36:45;;;;;;;2.53;2.30;;;18.40;99.90;;;;;;5061974;28;20066;-43
2021/07/06 01:39:10;;;;;;;4.45;2.55;;;18.40;99.90;;;;;;5058839;28;20219;-42
2021/07/06 01:41:41;;;;;;;2.90;2.40;;;18.40;99.90;;;;;;5059314;28;20024;-43
2021/07/06 01:44:24;;;;;;;2.72;2.20;;;18.40;99.90;;;;;;5057823;28;20100;-43
2021/07/06 01:46:49;;;;;;;3.05;2.10;;;18.50;99.90;;;;;;5059667;28;20024;-43
2021/07/06 01:49:16;;;;;;;3.50;2.45;;;18.50;99.90;;;;;;5057605;28;20393;-43
2021/07/06 01:51:43;;;;;;;3.72;2.58;;;18.50;99.90;;;;;;5059754;28;20036;-43
2021/07/06 01:54:08;;;;;;;4.40;2.60;;;18.50;99.90;;;;;;5058648;28;20047;-43
2021/07/06 01:56:39;;;;;;;5.20;2.58;;;18.50;99.90;;;;;;5059488;28;20016;-44
2021/07/06 01:59:05;;;;;;;2.92;2.63;;;18.50;99.90;;;;;;5057557;28;20042;-43
2021/07/06 02:01:31;;;;;;;5.68;2.63;;;18.40;99.90;;;;;;5057416;28;20396;-43
2021/07/06 02:03:57;;;;;;;4.97;2.80;;;18.50;99.90;;;;;;5038711;28;20073;-43
2021/07/06 02:06:22;;;;;;;6.80;3.13;;;18.50;99.90;;;;;;5039670;28;20035;-43
2021/07/06 02:08:48;;;;;;;4.00;2.55;;;18.50;99.90;;;;;;5034066;28;20029;-44
2021/07/06 02:11:13;;;;;;;5.88;2.90;;;18.50;99.90;;;;;;5041131;28;20051;-44
2021/07/06 02:13:39;;;;;;;4.65;2.47;;;18.60;99.90;;;;;;5052880;28;20028;-43
2021/07/06 02:16:05;;;;;;;3.75;2.53;;;18.60;99.90;;;;;;5052305;28;20024;-44
2021/07/06 02:18:32;;;;;;;5.95;2.65;;;18.60;99.90;;;;;;5055251;28;20029;-43
2021/07/06 02:20:59;;;;;;;3.53;2.35;;;18.70;99.90;;;;;;5063281;28;20096;-44
2021/07/06 02:23:26;;;;;;;4.90;2.40;;;18.60;99.90;;;;;;5055561;28;20025;-43
2021/07/06 02:25:53;;;;;;;4.28;2.42;;;18.70;99.90;;;;;;5055580;28;20029;-44
2021/07/06 02:28:21;;;;;;;4.90;2.22;;;18.70;99.90;;;;;;5052015;28;20089;-43
2021/07/06 02:30:47;;;;;;;4.75;2.63;;;18.80;99.90;;;;;;5037473;28;20048;-44
2021/07/06 02:33:14;;;;;;;2.33;2.13;;;18.80;99.90;;;;;;5032682;28;20036;-43
2021/07/06 02:35:39;;;;;;;3.58;2.17;;;18.80;99.90;;;;;;5029531;28;20021;-44
2021/07/06 02:38:05;;;;;;;4.88;2.47;;;18.70;99.90;;;;;;5032795;28;20317;-43
2021/07/06 02:40:31;;;;;;;2.63;2.10;;;18.60;99.90;;;;;;5028604;28;20030;-44
2021/07/06 02:42:58;;;;;;;2.63;2.30;;;18.60;99.90;;;;;;5028677;28;20022;-43
2021/07/06 02:45:24;;;;;;;4.25;2.40;;;18.60;99.90;;;;;;5036026;28;20029;-43
2021/07/06 02:47:49;;;;;;;2.20;2.03;;;18.60;99.90;;;;;;5033007;28;20025;-43
2021/07/06 02:50:17;;;;;;;2.17;1.98;;;18.60;99.90;;;;;;5025944;28;20158;-43
2021/07/06 02:52:43;;;;;;;3.50;2.00;;;18.60;99.90;;;;;;5027217;28;20072;-43
2021/07/06 02:55:10;;;;;;;2.58;2.22;;;18.60;99.90;;;;;;5032564;28;20056;-43
2021/07/06 02:57:37;;;;;;;6.22;2.30;;;18.60;99.90;;;;;;5039537;28;20487;-43
2021/07/06 03:00:05;;;;;;;2.50;2.10;;;18.60;99.90;;;;;;5031711;28;20063;-44
2021/07/06 03:02:31;;;;;;;8.07;2.00;;;18.60;99.90;;;;;;5031398;28;20040;-44
2021/07/06 03:04:56;;;;;;;3.00;1.63;;;18.60;99.90;;;;;;5030023;28;20017;-43
2021/07/06 03:07:22;;;;;;;3.50;2.17;;;18.60;99.90;;;;;;5031792;28;20029;-44
2021/07/06 03:09:47;;;;;;;7.65;1.92;;;18.60;99.90;;;;;;5029619;28;20033;-44
2021/07/06 03:12:13;;;;;;;2.45;1.90;;;18.60;99.90;;;;;;5039410;28;20446;-44
2021/07/06 03:14:38;;;;;;;6.47;2.00;;;18.60;99.90;;;;;;5037955;28;20496;-44
2021/07/06 03:17:04;;;;;;;2.47;2.20;;;18.60;99.90;;;;;;5039973;28;20030;-44
2021/07/06 03:19:29;;;;;;;6.55;3.30;;;18.60;99.90;;;;;;5055112;28;20436;-43
2021/07/06 03:21:55;;;;;;;6.78;2.45;;;18.60;99.90;;;;;;5053675;28;20085;-43
2021/07/06 03:24:20;;;;;;;5.80;2.20;;;18.60;99.90;;;;;;5056303;28;20393;-43
2021/07/06 03:26:46;;;;;;;3.50;2.10;;;18.50;99.90;;;;;;5042080;28;20032;-43
2021/07/06 03:29:11;;;;;;;2.85;1.83;;;18.50;99.90;;;;;;5043515;28;20048;-43
2021/07/06 03:31:37;;;;;;;5.07;2.05;;;18.50;99.90;;;;;;5050336;28;20040;-45
2021/07/06 03:34:02;;;;;;;3.25;1.85;;;18.60;99.90;;;;;;5044989;28;20033;-43
2021/07/06 03:36:28;;;;;;;6.82;1.95;;;18.60;99.90;;;;;;5042558;28;20104;-44
2021/07/06 03:38:53;;;;;;;2.47;2.00;;;18.50;99.90;;;;;;5039623;28;20030;-44
2021/07/06 03:41:18;;;;;;;3.00;1.88;;;18.60;99.90;;;;;;5041979;28;20025;-44
2021/07/06 03:43:44;;;;;;;2.45;1.75;;;18.60;99.90;;;;;;5033001;28;20644;-44
2021/07/06 03:46:09;;;;;;;3.63;1.92;;;18.50;99.90;;;;;;5055042;28;20029;-44
2021/07/06 03:48:35;;;;;;;4.70;2.20;;;18.50;99.90;;;;;;5039556;28;20056;-43
2021/07/06 03:51:00;;;;;;;2.03;1.90;;;18.60;99.90;;;;;;5054912;28;20168;-44
2021/07/06 03:53:26;;;;;;;2.83;2.30;;;18.60;99.90;;;;;;5047125;28;20024;-44
2021/07/06 03:55:51;;;;;;;3.72;2.50;;;18.50;99.90;;;;;;5057505;28;20079;-44
2021/07/06 03:58:17;;;;;;;3.45;2.00;;;18.50;99.90;;;;;;5053423;28;20471;-44
2021/07/06 04:00:42;;;;;;;5.45;2.00;;;18.50;99.90;;;;;;5032082;28;20199;-44
2021/07/06 04:03:08;;;;;;;10.88;2.30;;;18.50;99.90;;;;;;5044246;28;20025;-47
2021/07/06 04:05:33;;;;;;;3.75;1.80;;;18.50;99.90;;;;;;5036212;28;20037;-44
2021/07/06 04:07:59;;;;;;;3.50;1.95;;;18.50;99.90;;;;;;5037202;28;20039;-44
2021/07/06 04:10:25;;;;;;;2.22;2.00;;;18.50;99.90;;;;;;5038188;28;20094;-44
2021/07/06 04:12:50;;;;;;;5.32;1.88;;;18.60;99.90;;;;;;5035836;28;20209;-44
2021/07/06 04:15:17;;;;;;;3.10;1.60;;;18.60;99.90;;;;;;5042146;28;20029;-44
2021/07/06 04:17:43;;;;;;;3.88;1.98;;;18.60;99.90;;;;;;5061083;28;20077;-44
2021/07/06 04:20:10;;;;;;;3.05;2.17;;;18.70;99.90;;;;;;5059764;28;20099;-45
2021/07/06 04:22:36;;;;;;;4.03;2.08;;;18.70;99.90;;;;;;5060774;28;20058;-44
2021/07/06 04:25:03;;;;;;;3.67;2.00;;;18.70;99.90;;;;;;5060755;28;20706;-44
2021/07/06 04:27:28;;;;;;;3.72;2.38;;;18.70;99.90;;;;;;5060151;28;20111;-44
2021/07/06 04:29:54;;;;;;;4.05;1.98;;;18.70;99.90;;;;;;5060388;28;20173;-44
2021/07/06 04:32:19;;;;;;;4.57;1.70;;;18.70;99.90;;;;;;5057651;28;20020;-45
2021/07/06 04:34:46;;;;;;;7.43;2.08;;;18.80;99.90;;;;;;5055060;28;20446;-44
2021/07/06 04:37:12;;;;;;;3.17;1.92;;;18.80;99.90;;;;;;5043023;28;20151;-45
2021/07/06 04:39:38;;;;;;;2.25;1.80;;;18.80;99.90;;;;;;5028301;28;20108;-44
2021/07/06 04:42:04;;;;;;;5.10;2.17;;;19.00;99.90;;;;;;5033080;28;21571;-44
2021/07/06 04:44:30;;;;;;;5.47;1.90;;;19.00;99.90;;;;;;5030934;28;20303;-46
2021/07/06 04:46:55;;;;;;;2.78;2.00;;;19.10;99.90;;;;;;5030180;28;20383;-44
2021/07/06 04:49:21;;;;;;;3.63;1.70;;;19.00;99.90;;;;;;5039564;28;20032;-44
2021/07/06 04:51:46;;;;;;;5.05;1.80;;;19.00;99.90;;;;;;5057673;28;20112;-44
2021/07/06 04:54:12;;;;;;;3.88;1.60;;;19.00;99.90;;;;;;5050145;28;20514;-45
2021/07/06 04:56:37;;;;;;;2.22;1.98;;;19.00;99.90;;;;;;5043676;28;20111;-44
2021/07/06 04:59:03;;;;;;;6.70;1.88;;;18.90;99.90;;;;;;5050529;28;20024;-44
2021/07/06 05:01:28;;;;;;;3.00;1.90;;;18.90;99.90;;;;;;5047042;28;20571;-44
2021/07/06 05:03:54;;;;;;;3.88;2.22;;;18.90;99.90;;;;;;5034624;28;20383;-43
2021/07/06 05:06:20;;;;;;;5.82;1.98;;;18.90;99.90;;;;;;5053214;28;20021;-44
2021/07/06 05:08:47;;;;;;;4.50;2.05;;;18.90;99.90;;;;;;5041181;28;20033;-44
2021/07/06 05:11:14;;;;;;;2.97;1.92;;;19.00;99.90;;;;;;5030827;28;20487;-45
2021/07/06 05:13:39;;;;;;;3.08;2.05;;;19.00;99.90;;;;;;5036488;28;20022;-44
2021/07/06 05:16:05;;;;;;;3.78;1.77;;;19.10;99.90;;;;;;5041848;28;20028;-44
2021/07/06 05:18:31;;;;;;;7.28;2.10;;;19.10;99.90;;;;;;5049773;28;20032;-45
2021/07/06 05:20:56;;;;;;;6.93;1.70;;;19.10;99.90;;;;;;5031953;28;20052;-44
2021/07/06 05:23:22;;;;;;;4.05;1.73;;;19.20;99.90;;;;;;5037785;28;20036;-44
2021/07/06 05:25:47;;;;;;;2.90;2.00;;;19.30;99.90;;;;;;5033614;28;20022;-45
2021/07/06 05:28:13;;;;;;;4.80;1.70;;;19.40;99.90;;;;;;5035400;28;20075;-44
2021/07/06 05:30:38;;;;;;;6.13;2.17;;;19.50;99.90;;;;;;5034376;28;20041;-44
2021/07/06 05:33:04;;;;;;;5.35;1.85;;;19.60;99.90;;;;;;5038406;28;20104;-45
2021/07/06 05:35:29;;;;;;;2.70;1.73;;;19.70;99.90;;;;;;5050744;28;20308;-44
2021/07/06 05:37:55;;;;;;;3.90;1.30;;;19.80;99.90;;;;;;5047626;28;20024;-44
2021/07/06 05:40:20;;;;;;;2.78;1.73;;;19.70;99.90;;;;;;5051011;28;20029;-44
2021/07/06 05:42:46;;;;;;;5.20;1.92;;;19.80;99.90;;;;;;5032030;28;20518;-43
2021/07/06 05:45:13;;;;;;;1.95;1.48;;;19.80;99.90;;;;;;5030402;28;20024;-43
2021/07/06 05:47:40;;;;;;;5.03;1.75;;;19.80;99.90;;;;;;5031183;28;20476;-44
2021/07/06 05:50:08;;;;;;;5.25;2.17;;;19.80;99.90;;;;;;5032042;28;20506;-44
2021/07/06 05:52:34;;;;;;;4.03;1.73;;;19.70;99.90;;;;;;5030399;28;21243;-44
2021/07/06 05:55:01;;;;;;;3.55;1.70;;;19.80;99.90;;;;;;5030119;28;20244;-45
2021/07/06 05:57:30;;;;;;;4.80;2.05;;;19.90;99.90;;;;;;5028892;28;20026;-44
2021/07/06 06:00:00;;;;;;;3.95;1.80;;;19.90;99.90;;;;;;5029023;28;20025;-44
2021/07/06 06:02:26;;;;;;;5.18;1.90;;;20.00;99.90;;;;;;5036886;28;20035;-45
2021/07/06 06:04:52;;;;;;;3.00;1.67;;;20.10;99.90;;;;;;5030628;28;20031;-43
2021/07/06 06:07:18;;;;;;;4.10;1.67;;;20.10;99.90;;;;;;5034707;28;20028;-44
2021/07/06 06:09:43;;;;;;;3.58;1.90;;;20.10;99.90;;;;;;5032493;28;20102;-43
2021/07/06 06:12:10;;;;;;;2.88;1.70;;;20.20;99.90;;;;;;5052511;28;20451;-43
2021/07/06 06:14:36;;;;;;;4.78;1.83;;;20.30;99.90;;;;;;5043389;28;20430;-47
2021/07/06 06:17:02;;;;;;;3.00;1.95;;;20.40;99.90;;;;;;5037956;28;20017;-46
2021/07/06 06:19:27;;;;;;;1.58;1.40;;;20.40;99.90;;;;;;5039133;28;20082;-43
2021/07/06 06:21:53;;;;;;;2.15;1.67;;;20.60;99.90;;;;;;5036467;28;20044;-43
2021/07/06 06:24:18;;;;;;;2.97;1.58;;;20.60;99.90;;;;;;5038051;28;20444;-43
2021/07/06 06:26:44;;;;;;;3.50;1.67;;;20.70;99.90;;;;;;5031964;28;20056;-43
2021/07/06 06:29:09;;;;;;;2.78;1.60;;;20.80;99.90;;;;;;5038472;28;20056;-43
2021/07/06 06:31:34;;;;;;;4.10;1.65;;;20.80;99.90;;;;;;5034762;28;20091;-43
2021/07/06 06:34:00;;;;;;;3.60;1.80;;;20.90;99.90;;;;;;5041260;28;20120;-44
2021/07/06 06:36:25;;;;;;;2.03;1.50;;;21.00;99.90;;;;;;5039895;28;20025;-45
2021/07/06 06:38:51;;;;;;;1.65;1.30;;;21.10;99.90;;;;;;5044287;28;20021;-44
2021/07/06 06:41:16;;;;;;;6.40;1.90;;;21.20;99.90;;;;;;5045883;28;20359;-44
2021/07/06 06:43:42;;;;;;;2.83;1.40;;;21.30;99.90;;;;;;5033192;28;20167;-47
2021/07/06 06:46:07;;;;;;;3.65;1.60;;;21.40;99.90;;;;;;5049056;28;20431;-44
2021/07/06 06:48:33;;;;;;;2.42;1.42;;;21.50;99.90;;;;;;5030967;28;20115;-43
2021/07/06 06:50:59;;;;;;;2.10;1.40;;;21.60;99.90;;;;;;5039048;28;20391;-45
2021/07/06 06:53:29;;;;;;;2.35;1.65;;;21.70;99.90;;;;;;5038391;28;20068;-42
2021/07/06 06:55:55;;;;;;;2.35;1.65;;;21.90;99.90;;;;;;5033767;28;20026;-47
2021/07/06 06:58:20;;;;;;;6.82;2.10;;;21.90;99.90;;;;;;5039528;28;20035;-42
2021/07/06 07:00:46;;;;;;;1.65;1.55;;;22.00;99.90;;;;;;5034200;28;20037;-44
2021/07/06 07:03:12;;;;;;;7.70;1.58;;;22.10;99.90;;;;;;5039181;28;20098;-44
2021/07/06 07:05:37;;;;;;;2.28;1.60;;;22.20;99.90;;;;;;5037349;28;20079;-45
2021/07/06 07:08:04;;;;;;;1.90;1.63;;;22.30;99.90;;;;;;5037307;28;20112;-46
2021/07/06 07:10:29;;;;;;;2.00;1.80;;;22.40;99.90;;;;;;5037584;28;20032;-43
2021/07/06 07:12:56;;;;;;;3.47;1.67;;;22.50;99.90;;;;;;5037321;28;20483;-44
2021/07/06 07:15:22;;;;;;;1.60;1.50;;;22.60;99.90;;;;;;5033624;28;20104;-43
2021/07/06 07:17:48;;;;;;;3.17;1.40;;;22.60;99.90;;;;;;5037369;28;20419;-43
2021/07/06 07:20:14;;;;;;;1.60;1.38;;;22.70;99.90;;;;;;5025212;28;20020;-44
2021/07/06 07:22:41;;;;;;;3.45;1.92;;;22.90;99.90;;;;;;5031367;28;20030;-43
2021/07/06 07:25:07;;;;;;;6.35;1.50;;;22.90;99.90;;;;;;5026882;28;20056;-44
2021/07/06 07:27:32;;;;;;;3.30;1.60;;;23.10;99.90;;;;;;5024416;28;20436;-44
2021/07/06 07:29:58;;;;;;;2.38;1.70;;;23.20;99.90;;;;;;5027264;28;20026;-44
2021/07/06 07:32:24;;;;;;;1.50;1.40;;;23.20;99.90;;;;;;5025544;28;20503;-44
2021/07/06 07:34:49;;;;;;;4.95;1.33;;;23.30;99.90;;;;;;5027124;28;20152;-44
2021/07/06 07:37:16;;;;;;;4.70;1.48;;;23.40;99.90;;;;;;5024471;28;20068;-44
2021/07/06 07:39:44;;;;;;;9.57;2.03;;;23.50;99.90;;;;;;5032001;28;20017;-45
2021/07/06 07:42:09;;;;;;;5.45;1.55;;;23.60;99.90;;;;;;5029976;28;20099;-44
2021/07/06 07:44:35;;;;;;;2.38;1.38;;;23.80;99.90;;;;;;5029966;28;20029;-45
2021/07/06 07:47:00;;;;;;;1.60;1.25;;;24.00;99.90;;;;;;5031642;28;20034;-44
2021/07/06 07:49:26;;;;;;;3.92;1.67;;;24.10;99.90;;;;;;5030207;28;20108;-43
2021/07/06 07:51:52;;;;;;;4.78;1.20;;;24.10;99.90;;;;;;5028698;28;20511;-44
2021/07/06 07:54:17;;;;;;;1.83;1.40;;;24.30;99.90;;;;;;5029706;28;20021;-44
2021/07/06 07:56:42;;;;;;;2.47;1.40;;;24.40;99.90;;;;;;5030803;28;20048;-44
2021/07/06 07:59:11;;;;;;;4.78;1.40;;;24.40;99.90;;;;;;5028267;28;20072;-43
2021/07/06 08:01:37;;;;;;;3.60;1.55;;;24.50;99.90;;;;;;5032092;28;20499;-43
2021/07/06 08:04:03;;;;;;;1.27;1.17;;;24.60;99.90;;;;;;5030959;28;20091;-46
2021/07/06 08:06:29;;;;;;;2.78;1.33;;;24.80;99.90;;;;;;5029341;28;20029;-45
2021/07/06 08:08:54;;;;;;;2.00;1.35;;;25.00;99.90;;;;;;5029756;28;20034;-43
2021/07/06 08:11:21;;;;;;;6.85;1.73;;;25.40;99.90;;;;;;5028464;28;20228;-44
2021/07/06 08:13:46;;;;;;;1.73;1.60;;;25.60;99.90;;;;;;5055448;28;20025;-44
2021/07/06 08:16:12;;;;;;;4.55;1.60;;;25.90;99.90;;;;;;5049173;28;20213;-45
2021/07/06 08:18:38;;;;;;;2.15;0.90;;;26.50;99.90;;;;;;5050870;28;20094;-45
2021/07/06 08:21:04;;;;;;;1.10;0.90;;;27.50;96.00;;;;;;5047366;28;20104;-44
2021/07/06 08:23:29;;;;;;;1.30;1.00;;;28.20;93.50;;;;;;5038501;28;20506;-45
2021/07/06 08:25:55;;;;;;;9.00;1.08;;;29.30;91.70;;;;;;5036158;28;20292;-45
2021/07/06 08:28:22;;;;;;;3.25;0.93;;;29.70;86.90;;;;;;5052678;28;20044;-44
2021/07/06 08:30:48;;;;;;;1.45;1.00;;;30.90;80.20;;;;;;5035642;28;20144;-44
2021/07/06 08:33:14;;;;;;;3.00;1.05;;;31.20;79.00;;;;;;5048018;28;20220;-45
2021/07/06 08:35:40;;;;;;;2.08;1.05;;;33.30;71.50;;;;;;5047110;28;20541;-45
2021/07/06 08:38:06;;;;;;;3.70;1.40;;;33.90;68.10;;;;;;5056755;28;20385;-45
2021/07/06 08:40:32;;;;;;;4.10;1.40;;;33.30;63.70;;;;;;5038601;28;20028;-44
2021/07/06 08:43:01;;;;;;;3.40;1.25;;;32.90;64.30;;;;;;5042194;28;20025;-44
2021/07/06 08:45:27;;;;;;;3.53;1.50;;;32.20;65.40;;;;;;5048430;28;20025;-45
2021/07/06 08:47:54;;;;;;;2.45;0.90;;;32.80;63.10;;;;;;5038828;28;20510;-47
2021/07/06 08:50:21;;;;;;;1.63;0.90;;;33.30;61.60;;;;;;5053642;28;20057;-45
2021/07/06 08:52:47;;;;;;;5.47;0.80;;;33.50;59.20;;;;;;5035788;28;20024;-46
2021/07/06 08:55:14;;;;;;;1.85;0.95;;;35.30;55.50;;;;;;5055278;28;20025;-45
2021/07/06 08:57:41;;;;;;;2.22;1.00;;;34.90;54.30;;;;;;5043683;28;20037;-45
2021/07/06 09:00:09;;;;;;;1.85;1.00;;;34.50;53.60;;;;;;5039507;28;20486;-45
2021/07/06 09:02:35;;;;;;;3.38;0.90;;;34.20;54.80;;;;;;5032337;28;20446;-45
2021/07/06 09:05:00;;;;;;;1.10;1.00;;;33.70;55.20;;;;;;5033953;28;20018;-44
2021/07/06 09:07:42;;;;;;;2.90;0.90;;;33.80;54.80;;;;;;5043318;28;20032;-44
2021/07/06 09:10:19;;;;;;;1.10;0.80;;;33.90;55.20;;;;;;5045311;28;20067;-44
2021/07/06 09:12:45;;;;;;;5.18;1.20;;;33.00;54.90;;;;;;5039312;28;20044;-47
2021/07/06 09:15:26;;;;;;;1.67;0.90;;;31.40;58.40;;;;;;5040245;28;20040;-44
2021/07/06 09:18:14;;;;;;;4.35;1.23;;;30.30;61.40;;;;;;5056950;28;20098;-45
2021/07/06 09:20:42;;;;;;;4.15;0.98;;;30.00;62.20;;;;;;5042762;28;20029;-44
2021/07/06 09:23:25;;;;;;;4.40;1.30;;;29.00;62.90;;;;;;5062105;28;20036;-45
2021/07/06 09:26:25;;;;;;;3.50;1.20;;;29.00;63.90;;;;;;5042938;28;20503;-44
2021/07/06 09:29:00;;;;;;;1.52;1.42;;;28.50;64.70;;;;;;5039459;28;20049;-43
2021/07/06 09:31:34;;;;;;;2.00;1.23;;;28.60;65.70;;;;;;5032873;28;20028;-47
2021/07/06 09:34:03;;;;;;;3.10;1.35;;;28.90;67.40;;;;;;5031330;28;20033;-44
2021/07/06 09:36:47;;;;;;;2.95;1.45;;;29.20;65.80;;;;;;5048474;28;20020;-45
2021/07/06 09:39:23;;;;;;;3.10;1.17;;;29.60;64.40;;;;;;5040307;28;20017;-43
2021/07/06 09:41:59;;;;;;;2.80;1.30;;;31.40;63.00;;;;;;5038259;28;20021;-45
2021/07/06 09:44:44;;;;;;;1.23;1.00;;;32.00;59.10;;;;;;5047941;28;20032;-45
2021/07/06 09:47:14;;;;;;;1.20;0.90;;;33.60;57.50;;;;;;5038361;28;20083;-44
2021/07/06 09:49:43;;;;;;;3.17;0.90;;;33.80;56.70;;;;;;5049042;28;20162;-46
2021/07/06 09:52:17;;;;;;;1.55;1.02;;;33.30;54.80;;;;;;5045412;28;20413;-43
2021/07/06 09:54:45;;;;;;;1.25;0.90;;;31.30;55.60;;;;;;5033031;28;20470;-44
2021/07/06 09:57:27;;;;;;;3.83;1.05;;;30.30;61.20;;;;;;5051376;28;20033;-46
2021/07/06 09:59:56;;;;;;;2.17;1.00;;;30.10;60.40;;;;;;5030930;28;20029;-46
2021/07/06 10:02:22;;;;;;;1.67;0.90;;;30.20;61.20;;;;;;5039954;28;20078;-43
2021/07/06 10:04:52;;;;;;;2.03;1.30;;;31.00;60.90;;;;;;5041243;28;20482;-44
2021/07/06 10:07:19;;;;;;;3.20;1.38;;;30.20;61.40;;;;;;5057931;28;20024;-45
2021/07/06 10:09:45;;;;;;;3.72;1.55;;;29.70;62.20;;;;;;5040649;28;20064;-45
2021/07/06 10:12:11;;;;;;;1.75;1.40;;;28.90;63.40;;;;;;5033011;28;20029;-44
2021/07/06 10:14:37;;;;;;;2.22;1.02;;;28.70;63.50;;;;;;5048287;28;20085;-44
2021/07/06 10:17:05;;;;;;;4.30;1.30;;;28.70;65.20;;;;;;5043286;28;20029;-45
2021/07/06 10:19:33;;;;;;;3.25;1.27;;;28.50;66.50;;;;;;5052581;28;20368;-44
2021/07/06 10:21:59;;;;;;;1.65;1.30;;;28.00;67.30;;;;;;5047979;28;20497;-45
2021/07/06 10:24:24;;;;;;;2.72;1.08;;;27.90;67.80;;;;;;5059228;28;20032;-44
2021/07/06 10:26:57;;;;;;;4.13;1.30;;;27.90;68.20;;;;;;5057453;28;20122;-44
2021/07/06 10:29:33;;;;;;;2.17;1.33;;;27.70;68.00;;;;;;5037090;28;20075;-44
2021/07/06 10:31:59;;;;;;;2.50;1.60;;;27.60;69.40;;;;;;5035686;28;20243;-44
2021/07/06 10:34:28;;;;;;;2.50;1.50;;;27.70;69.70;;;;;;5048501;28;20075;-44
2021/07/06 10:36:54;;;;;;;2.70;1.30;;;27.20;70.50;;;;;;5031528;28;20226;-44
2021/07/06 10:39:44;;;;;;;2.30;1.20;;;27.00;70.30;;;;;;5038154;28;20052;-43
2021/07/06 10:42:10;;;;;;;3.53;1.40;;;27.00;70.80;;;;;;5035711;28;20128;-46
2021/07/06 10:44:38;;;;;;;2.33;1.33;;;27.10;71.90;;;;;;5040088;28;20112;-45
2021/07/06 10:47:23;;;;;;;3.25;1.42;;;27.30;71.60;;;;;;5048046;28;20471;-44
2021/07/06 10:49:49;;;;;;;3.20;1.48;;;27.50;71.20;;;;;;5040021;28;20030;-45
2021/07/06 10:52:34;;;;;;;1.55;1.20;;;27.80;71.30;;;;;;5055334;28;20107;-44
2021/07/06 10:55:32;;;;;;;3.40;1.35;;;27.80;72.70;;;;;;5053502;28;20294;-46
2021/07/06 10:57:58;;;;;;;4.70;1.88;;;27.70;73.80;;;;;;5036500;28;20049;-44
2021/07/06 11:00:44;;;;;;;6.03;1.48;;;27.40;76.00;;;;;;5042145;28;20083;-44
2021/07/06 11:03:19;;;;;;;2.53;1.30;;;27.20;76.30;;;;;;5039992;28;20018;-45
2021/07/06 11:05:45;;;;;;;2.10;1.35;;;26.80;79.10;;;;;;5035225;28;20502;-44
2021/07/06 11:08:39;;;;;;;4.88;1.55;;;26.50;79.00;;;;;;5043327;28;20064;-46
2021/07/06 11:11:05;;;;;;;2.03;1.48;;;26.30;79.90;;;;;;5047810;28;20032;-43
2021/07/06 11:13:31;;;;;;;5.75;1.88;;;26.30;80.50;;;;;;5027301;28;20044;-44
2021/07/06 11:15:58;;;;;;;7.63;1.42;;;26.30;81.10;;;;;;5035023;28;20503;-45
2021/07/06 11:18:41;;;;;;;5.43;1.77;;;26.20;80.50;;;;;;5029961;28;20079;-44
2021/07/06 11:21:28;;;;;;;4.43;1.70;;;26.20;81.40;;;;;;5032118;28;20075;-46
2021/07/06 11:24:13;;;;;;;3.78;1.52;;;26.10;83.30;;;;;;5029575;28;20095;-44
2021/07/06 11:26:44;;;;;;;2.75;1.80;;;26.20;84.00;;;;;;5031028;28;20050;-44
2021/07/06 11:29:09;;;;;;;3.72;1.65;;;26.00;86.80;;;;;;5032075;28;20081;-44
2021/07/06 11:31:35;;;;;;;2.33;1.73;;;25.80;87.70;;;;;;5028855;28;20026;-44
2021/07/06 11:34:04;;;;;;;1.98;1.40;;;25.60;91.20;;;;;;5029133;28;20026;-45
2021/07/06 11:36:30;;;;;;;6.00;1.58;;;25.40;92.70;;;;;;5029958;28;20429;-43
2021/07/06 11:38:57;;;;;;;7.07;1.80;;;25.00;95.20;;;;;;5031117;28;20105;-44
2021/07/06 11:41:23;;;;;;;5.65;2.53;;;24.80;99.20;;;;;;5029901;28;20025;-44
2021/07/06 11:43:49;;;;;;;7.35;2.80;;;24.30;99.90;;;;;;5033680;28;20441;-44
2021/07/06 11:46:17;;;;;;;6.63;2.67;;;23.20;99.90;;;;;;5030210;28;20029;-47
2021/07/06 11:49:08;;;;;;;5.88;3.20;;;22.50;99.90;;;;;;5029116;28;20029;-44
2021/07/06 11:51:42;;;;;;;7.38;3.38;;;21.90;99.90;;;;;;4990883;28;20467;-45
2021/07/06 11:54:11;;;;;;;12.10;3.67;;;21.40;99.90;;;;;;5009198;28;20567;-45
2021/07/06 11:56:38;;;;;;;8.05;3.53;;;21.10;99.90;;;;;;5035144;28;20029;-45
2021/07/06 11:59:12;;;;;;;8.30;3.60;;;20.80;99.90;;;;;;5035864;28;20099;-45
2021/07/06 12:01:38;;;;;;;9.57;3.95;;;20.50;99.90;;;;;;5035318;28;20052;-45
2021/07/06 12:04:04;;;;;;;11.90;4.57;;;20.30;99.90;;;;;;5037030;28;20478;-48
2021/07/06 12:06:31;;;;;;;8.43;4.30;;;20.30;99.90;;;;;;5039932;28;20487;-46
2021/07/06 12:09:04;;;;;;;13.40;4.88;;;20.20;99.90;;;;;;5037944;28;20033;-45
2021/07/06 12:11:30;;;;;;;6.07;4.65;;;20.00;99.90;;;;;;5034409;28;20083;-48
2021/07/06 12:13:59;;;;;;;8.68;5.57;;;20.00;99.90;;;;;;5033681;28;20037;-46
2021/07/06 12:16:28;;;;;;;6.63;5.65;;;20.00;99.90;;;;;;5037559;28;20055;-48
2021/07/06 12:19:10;;;;;;;10.98;5.55;;;20.10;99.90;;;;;;5036650;28;20032;-47
2021/07/06 12:21:40;;;;;;;6.60;4.97;;;20.00;99.90;;;;;;5038463;28;20017;-46
2021/07/06 12:24:10;;;;;;;12.13;5.63;;;20.00;99.90;;;;;;5036877;28;20018;-48
2021/07/06 12:26:37;;;;;;;11.73;5.05;;;19.90;99.90;;;;;;5032853;28;20025;-46
2021/07/06 12:29:03;;;;;;;7.63;5.15;;;19.90;99.90;;;;;;5034816;28;20036;-45
2021/07/06 12:31:34;;;;;;;7.13;5.18;;;19.90;99.90;;;;;;5035244;28;20021;-44
2021/07/06 12:34:38;;;;;;;5.50;4.50;;;20.00;99.90;;;;;;5052218;28;20491;-45
2021/07/06 12:37:04;;;;;;;11.35;5.47;;;19.90;99.90;;;;;;5046301;28;20056;-45
2021/07/06 12:39:33;;;;;;;8.07;4.70;;;19.80;99.90;;;;;;5054735;28;20067;-45
2021/07/06 12:42:11;;;;;;;6.38;5.10;;;19.60;99.90;;;;;;5052107;28;20851;-45
2021/07/06 12:44:46;;;;;;;6.28;4.47;;;19.70;99.90;;;;;;5040725;28;20028;-44
2021/07/06 12:47:17;;;;;;;6.15;5.32;;;19.80;99.90;;;;;;5054836;28;20509;-45
2021/07/06 12:49:47;;;;;;;9.60;6.13;;;19.90;99.90;;;;;;5053627;28;20047;-46